Time;durP1;ratioP1;P1;durP2;ratioP2;P2;SDS_P1;SDS_P2;PMS_P1;PMS_P2;Temp;Humidity;BMP_temperature;BMP_pressure;BME280_temperature;BME280_humidity;BME280_pressure;Samples;Min_cycle;Max_cycle;Signal;HPM_P1;HPM_P2
2021/01/27 00:02:50;;;;;;;0.20;0.20;;;;;;;1.37;100.00;99158.66;5044572;28;20049;-83
2021/01/27 00:05:53;;;;;;;0.20;0.20;;;;;;;1.37;100.00;99163.38;5033597;28;20048;-83
2021/01/27 00:08:57;;;;;;;0.20;0.20;;;;;;;1.37;100.00;99166.88;5033589;28;20048;-83
2021/01/27 00:12:00;;;;;;;0.10;0.10;;;;;;;1.45;100.00;99170.25;5044194;28;20052;-83
2021/01/27 00:15:10;;;;;;;0.20;0.20;;;;;;;1.46;100.00;99171.75;5033347;28;20052;-83
2021/01/27 00:18:17;;;;;;;0.10;0.10;;;;;;;1.49;100.00;99182.63;5044036;28;20041;-83
2021/01/27 00:21:20;;;;;;;0.20;0.20;;;;;;;1.46;100.00;99167.06;5033221;28;20070;-83
2021/01/27 00:24:24;;;;;;;0.10;0.10;;;;;;;1.49;100.00;99168.91;5033200;28;20052;-83
2021/01/27 00:27:27;;;;;;;0.10;0.10;;;;;;;1.49;100.00;99166.19;5031772;28;20056;-82
2021/01/27 00:30:34;;;;;;;0.10;0.10;;;;;;;1.50;100.00;99170.47;5025874;28;20052;-82
2021/01/27 00:33:40;;;;;;;0.10;0.10;;;;;;;1.49;100.00;99166.19;5032540;28;20417;-82
2021/01/27 00:36:44;;;;;;;0.20;0.20;;;;;;;1.49;100.00;99166.19;5035302;28;20072;-82
2021/01/27 00:39:48;;;;;;;0.20;0.20;;;;;;;1.45;100.00;99173.72;5038671;28;20044;-82
2021/01/27 00:42:52;;;;;;;0.20;0.20;;;;;;;1.43;100.00;99156.94;5033468;28;20048;-82
2021/01/27 00:45:55;;;;;;;0.15;0.15;;;;;;;1.45;100.00;99154.53;5031949;28;20056;-83
2021/01/27 00:48:59;;;;;;;0.10;0.10;;;;;;;1.52;100.00;99159.84;5032898;28;20516;-83
2021/01/27 00:52:02;;;;;;;0.10;0.10;;;;;;;1.52;100.00;99162.56;5032649;28;20052;-82
2021/01/27 00:55:11;;;;;;;0.13;0.13;;;;;;;1.53;100.00;99166.88;5044044;28;20052;-83
2021/01/27 00:58:14;;;;;;;0.10;0.10;;;;;;;1.51;100.00;99163.81;5043792;28;20052;-83
2021/01/27 01:01:18;;;;;;;0.10;0.10;;;;;;;1.52;100.00;99165.31;5043445;28;20405;-83
2021/01/27 01:04:21;;;;;;;0.20;0.20;;;;;;;1.52;100.00;99154.34;5032502;28;20045;-82
2021/01/27 01:07:25;;;;;;;0.10;0.10;;;;;;;1.53;100.00;99152.38;5033344;28;20398;-83
2021/01/27 01:10:31;;;;;;;0.20;0.20;;;;;;;1.59;100.00;99139.69;5032972;28;20517;-82
2021/01/27 01:13:35;;;;;;;0.20;0.20;;;;;;;1.61;100.00;99141.97;5034478;28;20516;-83
2021/01/27 01:16:39;;;;;;;0.10;0.10;;;;;;;1.60;100.00;99143.19;5034952;28;20052;-83
2021/01/27 01:19:42;;;;;;;0.10;0.10;;;;;;;1.46;100.00;99142.38;5034993;28;20036;-83
2021/01/27 01:22:50;;;;;;;0.13;0.13;;;;;;;1.43;100.00;99162.41;5032615;28;20044;-83
2021/01/27 01:25:54;;;;;;;0.10;0.10;;;;;;;1.52;100.00;99159.06;5032154;28;20052;-82
2021/01/27 01:28:57;;;;;;;0.15;0.15;;;;;;;1.62;100.00;99173.72;5044962;28;20052;-82
2021/01/27 01:32:01;;;;;;;0.10;0.10;;;;;;;1.65;100.00;99178.31;5044345;28;20052;-82
2021/01/27 01:35:06;;;;;;;0.10;0.10;;;;;;;1.71;100.00;99179.38;5032444;28;20056;-83
2021/01/27 01:38:10;;;;;;;0.10;0.10;;;;;;;1.77;100.00;99183.91;5013311;28;20049;-83
2021/01/27 01:41:14;;;;;;;0.10;0.10;;;;;;;1.82;100.00;99177.84;5012340;28;20505;-83
2021/01/27 01:44:18;;;;;;;0.10;0.10;;;;;;;1.92;100.00;99192.50;5012942;28;20049;-83
2021/01/27 01:47:21;;;;;;;0.10;0.10;;;;;;;1.99;100.00;99173.84;5012529;28;20052;-83
2021/01/27 01:50:25;;;;;;;0.10;0.10;;;;;;;2.14;100.00;99168.75;5013722;28;20052;-82
2021/01/27 01:53:29;;;;;;;0.10;0.10;;;;;;;2.21;100.00;99160.31;5013078;28;20053;-81
2021/01/27 01:56:37;;;;;;;0.20;0.20;;;;;;;2.32;100.00;99171.75;5012501;28;20041;-82
2021/01/27 01:59:47;;;;;;;0.10;0.10;;;;;;;2.41;100.00;99162.88;5012303;28;20508;-83
2021/01/27 02:02:51;;;;;;;0.10;0.10;;;;;;;2.46;100.00;99160.38;5013153;28;20525;-82
2021/01/27 02:06:00;;;;;;;0.10;0.10;;;;;;;2.50;100.00;99161.03;5015900;28;20048;-82
2021/01/27 02:09:05;;;;;;;0.13;0.13;;;;;;;2.64;100.00;99173.59;5015866;28;20509;-84
2021/01/27 02:12:25;;;;;;;0.10;0.10;;;;;;;2.72;100.00;99172.94;5016023;28;20540;-82
2021/01/27 02:15:34;;;;;;;0.10;0.10;;;;;;;2.79;100.00;99172.72;5015775;28;20056;-82
2021/01/27 02:19:16;;;;;;;0.10;0.10;;;;;;;2.82;100.00;99171.81;5016174;28;20049;-82
2021/01/27 02:22:38;;;;;;;0.10;0.10;;;;;;;2.87;100.00;99178.75;5015680;28;20048;-83
2021/01/27 02:26:07;;;;;;;0.10;0.10;;;;;;;3.04;100.00;99171.94;4992320;28;20033;-83
2021/01/27 02:29:39;;;;;;;0.10;0.10;;;;;;;3.02;100.00;99163.34;4998533;28;20056;-83
2021/01/27 02:32:52;;;;;;;0.10;0.10;;;;;;;3.06;100.00;99164.78;5010057;28;20124;-83
2021/01/27 02:36:10;;;;;;;0.10;0.10;;;;;;;3.11;100.00;99154.44;5000522;28;20084;-83
2021/01/27 02:39:22;;;;;;;0.10;0.10;;;;;;;3.23;100.00;99156.41;5000750;28;20818;-81
2021/01/27 02:42:26;;;;;;;;;;;;;;;3.28;100.00;99162.09;5000322;28;20033;-83
2021/01/27 02:45:34;;;;;;;0.10;0.10;;;;;;;3.32;100.00;99156.47;5004984;28;19932;-84
2021/01/27 02:48:45;;;;;;;0.10;0.10;;;;;;;3.44;100.00;99156.47;5008775;28;20040;-82
2021/01/27 02:51:55;;;;;;;0.10;0.10;;;;;;;3.46;100.00;99158.78;5013652;28;20116;-81
2021/01/27 02:55:04;;;;;;;0.10;0.10;;;;;;;3.48;100.00;99157.13;5000370;28;20281;-82
2021/01/27 02:58:14;;;;;;;0.10;0.00;;;;;;;3.46;100.00;99156.00;4999137;28;20135;-79
2021/01/27 03:01:27;;;;;;;0.10;0.10;;;;;;;3.48;100.00;99134.31;4999782;28;20064;-82
2021/01/27 03:04:49;;;;;;;0.10;0.08;;;;;;;3.52;100.00;99145.97;5011950;28;20270;-83
2021/01/27 03:08:00;;;;;;;0.10;0.10;;;;;;;3.58;100.00;99155.19;5001243;28;20048;-83
2021/01/27 03:11:20;;;;;;;0.10;0.00;;;;;;;3.62;100.00;99161.34;5001383;28;20156;-82
2021/01/27 03:14:25;;;;;;;0.10;0.10;;;;;;;3.56;100.00;99163.13;4997873;28;20036;-81
2021/01/27 03:17:32;;;;;;;0.10;0.10;;;;;;;3.49;100.00;99150.38;4995177;28;20064;-81
2021/01/27 03:20:39;;;;;;;0.10;0.10;;;;;;;3.50;100.00;99153.91;4995109;28;20262;-81
2021/01/27 03:23:49;;;;;;;0.10;0.10;;;;;;;3.55;100.00;99139.59;5006630;28;20033;-81
2021/01/27 03:27:32;;;;;;;0.10;0.10;;;;;;;3.60;100.00;99128.00;4975393;28;20040;-81
2021/01/27 03:30:36;;;;;;;0.10;0.00;;;;;;;3.75;100.00;99134.53;4975426;28;20171;-82
2021/01/27 03:34:12;;;;;;;0.10;0.10;;;;;;;3.81;100.00;99146.53;4976050;28;20045;-82
2021/01/27 03:37:24;;;;;;;0.10;0.00;;;;;;;3.83;100.00;99150.38;4977409;28;20056;-82
2021/01/27 03:40:28;;;;;;;0.10;0.10;;;;;;;3.86;100.00;99167.97;4978005;28;20043;-81
2021/01/27 03:43:38;;;;;;;0.10;0.10;;;;;;;3.88;100.00;99162.78;4975638;28;20206;-81
2021/01/27 03:46:56;;;;;;;0.10;0.10;;;;;;;3.92;100.00;99168.19;4975933;28;20033;-82
2021/01/27 03:50:22;;;;;;;0.10;0.10;;;;;;;4.03;100.00;99163.81;4976109;28;20049;-82
2021/01/27 03:53:30;;;;;;;0.10;0.10;;;;;;;4.21;100.00;99169.47;4977428;28;20040;-81
2021/01/27 03:56:45;;;;;;;0.10;0.10;;;;;;;4.27;100.00;99159.41;4976199;28;20833;-82
2021/01/27 03:59:49;;;;;;;0.10;0.10;;;;;;;4.37;100.00;99168.50;4986521;28;20135;-81
2021/01/27 04:03:04;;;;;;;0.10;0.10;;;;;;;4.45;100.00;99165.03;4974765;28;20788;-81
2021/01/27 04:06:08;;;;;;;0.10;0.10;;;;;;;4.59;100.00;99161.72;4972759;28;20561;-81
2021/01/27 04:09:15;;;;;;;0.10;0.10;;;;;;;4.67;100.00;99155.97;4973470;28;20045;-81
2021/01/27 04:12:19;;;;;;;0.10;0.10;;;;;;;4.59;100.00;99161.72;4974112;28;20037;-81
2021/01/27 04:15:22;;;;;;;0.10;0.10;;;;;;;4.73;100.00;99170.69;4973332;28;20097;-80
2021/01/27 04:18:27;;;;;;;0.10;0.00;;;;;;;4.94;100.00;99178.13;4973115;28;20029;-80
2021/01/27 04:21:30;;;;;;;0.10;0.00;;;;;;;4.99;100.00;99167.28;4973788;28;20041;-81
2021/01/27 04:24:34;;;;;;;0.00;0.00;;;;;;;4.93;100.00;99174.63;4973906;28;20328;-81
2021/01/27 04:27:37;;;;;;;0.00;0.00;;;;;;;4.95;100.00;99176.91;4993082;28;20037;-80
2021/01/27 04:30:41;;;;;;;0.10;0.10;;;;;;;4.90;100.00;99174.75;4993239;28;20041;-80
2021/01/27 04:33:45;;;;;;;0.10;0.00;;;;;;;4.91;100.00;99187.34;4994316;28;20040;-80
2021/01/27 04:36:49;;;;;;;0.10;0.10;;;;;;;4.76;100.00;99186.34;5006555;28;20072;-80
2021/01/27 04:39:52;;;;;;;0.10;0.10;;;;;;;4.74;100.00;99199.81;5003879;28;20032;-80
2021/01/27 04:42:57;;;;;;;0.10;0.10;;;;;;;4.78;100.00;99206.75;4992627;28;20036;-80
2021/01/27 04:46:10;;;;;;;0.10;0.10;;;;;;;4.75;100.00;99201.34;4992244;28;20040;-80
2021/01/27 04:49:27;;;;;;;0.10;0.00;;;;;;;4.68;100.00;99202.38;5003681;28;21022;-81
2021/01/27 04:52:57;;;;;;;0.10;0.10;;;;;;;4.58;100.00;99187.00;4993683;28;20036;-80
2021/01/27 04:56:23;;;;;;;0.10;0.10;;;;;;;4.53;100.00;99191.13;4993195;28;20068;-80
2021/01/27 04:59:45;;;;;;;0.10;0.10;;;;;;;4.54;100.00;99181.63;4992330;28;20342;-80
2021/01/27 05:03:20;;;;;;;0.03;0.03;;;;;;;4.49;100.00;99179.47;4991679;28;20044;-81
2021/01/27 05:06:30;;;;;;;0.10;0.10;;;;;;;4.30;100.00;99179.78;4994395;28;20679;-80
2021/01/27 05:09:39;;;;;;;0.10;0.00;;;;;;;4.27;100.00;99186.97;4992904;28;20036;-80
2021/01/27 05:12:52;;;;;;;0.10;0.10;;;;;;;4.27;100.00;99198.00;4992040;28;20056;-81
2021/01/27 05:15:59;;;;;;;0.10;0.10;;;;;;;4.20;100.00;99181.72;4992154;28;20661;-81
2021/01/27 05:19:07;;;;;;;0.10;0.10;;;;;;;4.07;100.00;99189.25;4991819;28;20032;-81
2021/01/27 05:22:12;;;;;;;0.10;0.00;;;;;;;4.00;100.00;99192.28;4991639;28;20040;-81
2021/01/27 05:25:34;;;;;;;0.10;0.10;;;;;;;4.05;100.00;99188.19;4989951;28;20044;-81
2021/01/27 05:28:45;;;;;;;0.10;0.10;;;;;;;4.06;100.00;99189.72;5001351;28;20041;-81
2021/01/27 05:32:09;;;;;;;0.10;0.10;;;;;;;3.98;100.00;99197.47;4990785;28;20853;-80
2021/01/27 05:35:22;;;;;;;0.10;0.00;;;;;;;3.99;100.00;99210.03;5002091;28;20056;-81
2021/01/27 05:38:28;;;;;;;0.10;0.00;;;;;;;3.93;100.00;99198.03;4996377;28;20036;-80
2021/01/27 05:41:32;;;;;;;0.10;0.10;;;;;;;3.88;100.00;99190.34;4995792;28;20040;-81
2021/01/27 05:44:35;;;;;;;0.10;0.10;;;;;;;3.75;100.00;99197.88;4997141;28;20048;-80
2021/01/27 05:47:39;;;;;;;0.10;0.10;;;;;;;3.72;100.00;99204.28;4997562;28;20075;-82
2021/01/27 05:50:42;;;;;;;0.10;0.10;;;;;;;3.72;100.00;99199.56;4998064;28;20048;-81
2021/01/27 05:53:46;;;;;;;0.10;0.10;;;;;;;3.65;100.00;99193.50;4998074;28;20712;-83
2021/01/27 05:56:51;;;;;;;0.10;0.10;;;;;;;3.58;100.00;99188.22;4996738;28;20036;-81
2021/01/27 06:00:17;;;;;;;0.10;0.00;;;;;;;3.46;100.00;99189.81;4997782;28;20052;-81
2021/01/27 06:03:23;;;;;;;0.10;0.10;;;;;;;3.35;100.00;99191.38;4998047;28;20033;-81
2021/01/27 06:06:31;;;;;;;0.10;0.10;;;;;;;3.34;100.00;99195.31;4995809;28;20230;-82
2021/01/27 06:09:43;;;;;;;0.10;0.10;;;;;;;3.38;100.00;99194.00;4997780;28;20053;-81
2021/01/27 06:12:47;;;;;;;0.10;0.10;;;;;;;3.36;100.00;99187.38;4998483;28;20712;-81
2021/01/27 06:15:51;;;;;;;0.10;0.10;;;;;;;3.37;100.00;99199.94;4996365;28;20033;-79
2021/01/27 06:19:09;;;;;;;0.10;0.00;;;;;;;3.38;100.00;99207.00;4996016;28;20049;-79
2021/01/27 06:22:40;;;;;;;0.10;0.10;;;;;;;3.40;100.00;99221.09;4995677;28;20036;-79
2021/01/27 06:26:00;;;;;;;0.10;0.10;;;;;;;3.42;100.00;99224.16;4995301;28;20036;-79
2021/01/27 06:29:10;;;;;;;0.10;0.10;;;;;;;3.44;100.00;99232.75;4994448;28;20065;-80
2021/01/27 06:32:28;;;;;;;0.05;0.05;;;;;;;3.44;100.00;99232.75;4991118;28;20300;-83
2021/01/27 06:35:54;;;;;;;0.10;0.10;;;;;;;3.46;100.00;99241.34;4994516;28;20269;-82
2021/01/27 06:39:21;;;;;;;0.10;0.10;;;;;;;3.46;100.00;99241.34;5004187;28;20041;-80
2021/01/27 06:42:28;;;;;;;0.10;0.10;;;;;;;3.50;100.00;99253.00;4994625;28;20107;-81
2021/01/27 06:45:38;;;;;;;0.10;0.10;;;;;;;3.58;100.00;99257.81;4995516;28;20642;-80
2021/01/27 06:49:03;;;;;;;0.10;0.10;;;;;;;3.58;100.00;99257.81;4994263;28;20052;-81
2021/01/27 06:52:41;;;;;;;0.10;0.00;;;;;;;3.61;100.00;99264.44;4993632;28;20241;-81
2021/01/27 06:55:56;;;;;;;0.10;0.00;;;;;;;3.66;100.00;99269.41;4992057;28;20397;-82
2021/01/27 06:59:26;;;;;;;0.10;0.00;;;;;;;3.68;100.00;99275.97;4991636;28;21009;-79
2021/01/27 07:03:05;;;;;;;0.10;0.10;;;;;;;3.74;100.00;99273.44;4992212;28;20250;-79
2021/01/27 07:06:28;;;;;;;0.10;0.00;;;;;;;3.79;100.00;99270.13;4992391;28;20036;-81
2021/01/27 07:10:25;;;;;;;0.10;0.10;;;;;;;3.80;100.00;99266.94;4992475;28;20250;-81
2021/01/27 07:13:44;;;;;;;0.10;0.10;;;;;;;3.85;100.00;99246.31;4929008;28;20070;-81
2021/01/27 07:16:56;;;;;;;0.10;0.10;;;;;;;3.85;100.00;99251.84;4942316;28;20558;-80
2021/01/27 07:20:19;;;;;;;0.10;0.00;;;;;;;3.91;100.00;99250.06;4989233;28;20241;-81
2021/01/27 07:23:34;;;;;;;;;;;;;;;3.94;100.00;99254.69;4972828;28;20274;-81
2021/01/27 07:27:17;;;;;;;0.10;0.00;;;;;;;3.97;100.00;99240.00;4990764;28;19905;-81
2021/01/27 07:30:32;;;;;;;0.10;0.00;;;;;;;3.95;100.00;99250.69;5001005;28;20056;-80
2021/01/27 07:33:49;;;;;;;0.10;0.10;;;;;;;3.93;100.00;99244.88;4991581;28;20258;-82
2021/01/27 07:36:59;;;;;;;0.10;0.00;;;;;;;3.93;100.00;99252.34;4990607;28;20048;-82
2021/01/27 07:40:12;;;;;;;0.10;0.10;;;;;;;3.85;100.00;99252.59;4989631;28;20139;-81
2021/01/27 07:43:26;;;;;;;0.10;0.10;;;;;;;3.81;100.00;99254.69;4989576;28;20377;-82
2021/01/27 07:46:37;;;;;;;0.10;0.10;;;;;;;3.81;100.00;99256.69;4988978;28;20049;-82
2021/01/27 07:49:53;;;;;;;0.10;0.10;;;;;;;3.82;100.00;99258.22;4990675;28;20044;-81
2021/01/27 07:53:09;;;;;;;0.10;0.10;;;;;;;3.84;100.00;99256.56;4989717;28;20258;-80
2021/01/27 07:56:50;;;;;;;0.10;0.00;;;;;;;3.93;100.00;99269.66;4990453;28;20166;-82
2021/01/27 08:00:06;;;;;;;0.10;0.10;;;;;;;3.96;100.00;99279.78;4973119;28;20237;-83
2021/01/27 08:03:25;;;;;;;0.10;0.10;;;;;;;3.87;100.00;99281.69;4992029;28;20040;-82
2021/01/27 08:06:43;;;;;;;0.10;0.10;;;;;;;3.88;100.00;99289.50;4991404;28;20068;-81
2021/01/27 08:09:47;;;;;;;0.10;0.10;;;;;;;3.88;100.00;99294.25;4991779;28;20254;-83
2021/01/27 08:12:56;;;;;;;0.10;0.00;;;;;;;3.93;100.00;99294.44;4991279;28;20742;-83
2021/01/27 08:16:15;;;;;;;0.10;0.00;;;;;;;4.00;100.00;99285.94;4993059;28;20242;-83
2021/01/27 08:19:21;;;;;;;0.10;0.10;;;;;;;4.04;100.00;99286.59;4994884;28;20241;-83
2021/01/27 08:22:46;;;;;;;0.10;0.10;;;;;;;4.05;100.00;99290.88;4996267;28;20428;-83
2021/01/27 08:26:04;;;;;;;0.10;0.10;;;;;;;4.13;100.00;99305.19;4992206;28;20249;-85
2021/01/27 08:29:10;;;;;;;0.10;0.10;;;;;;;4.23;100.00;99299.31;4991607;28;20053;-82
2021/01/27 08:32:45;;;;;;;0.10;0.10;;;;;;;4.25;100.00;99310.66;4989603;28;20174;-82
2021/01/27 08:35:48;;;;;;;0.10;0.00;;;;;;;4.27;100.00;99305.47;4990550;28;20262;-84
2021/01/27 08:38:55;;;;;;;0.10;0.10;;;;;;;4.28;100.00;99311.75;5001782;28;20060;-84
2021/01/27 08:42:23;;;;;;;0.08;0.05;;;;;;;4.26;100.00;99319.72;4992260;28;20226;-84
2021/01/27 08:45:33;;;;;;;0.10;0.00;;;;;;;4.23;100.00;99313.09;5000796;28;20147;-84
2021/01/27 08:48:49;;;;;;;0.10;0.10;;;;;;;4.20;100.00;99311.22;4990518;28;20252;-84
2021/01/27 08:51:53;;;;;;;0.10;0.10;;;;;;;4.18;100.00;99315.66;4991321;28;20594;-82
2021/01/27 08:54:56;;;;;;;0.10;0.10;;;;;;;4.17;100.00;99312.13;5002639;28;20052;-84
2021/01/27 08:58:26;;;;;;;0.10;0.00;;;;;;;4.22;100.00;99319.06;4995011;28;20520;-80
2021/01/27 09:01:29;;;;;;;0.10;0.10;;;;;;;4.24;100.00;99322.13;4996723;28;20040;-83
2021/01/27 09:04:36;;;;;;;0.10;0.00;;;;;;;4.30;100.00;99326.63;5007846;28;20052;-82
2021/01/27 09:07:48;;;;;;;0.10;0.10;;;;;;;4.42;100.00;99338.81;4995110;28;20032;-80
2021/01/27 09:10:58;;;;;;;0.10;0.00;;;;;;;4.50;100.00;99335.38;4997841;28;20225;-82
2021/01/27 09:14:07;;;;;;;0.10;0.10;;;;;;;4.56;100.00;99322.56;4996490;28;21067;-82
2021/01/27 09:17:12;;;;;;;0.00;0.00;;;;;;;4.65;100.00;99323.84;5005996;28;20036;-82
2021/01/27 09:20:27;;;;;;;0.10;0.00;;;;;;;4.67;100.00;99343.47;4994282;28;20705;-81
2021/01/27 09:23:31;;;;;;;0.10;0.00;;;;;;;4.70;100.00;99339.84;4993891;28;20041;-80
2021/01/27 09:26:44;;;;;;;0.10;0.10;;;;;;;4.76;100.00;99338.81;4997472;28;20037;-80
2021/01/27 09:30:01;;;;;;;0.10;0.10;;;;;;;4.82;100.00;99334.25;4999724;28;20041;-79
2021/01/27 09:33:14;;;;;;;0.10;0.00;;;;;;;4.92;100.00;99335.06;5005689;28;20060;-79
2021/01/27 09:36:26;;;;;;;0.10;0.10;;;;;;;4.98;100.00;99341.56;4993362;28;20053;-80
2021/01/27 09:39:33;;;;;;;0.10;0.00;;;;;;;5.00;100.00;99339.13;4995632;28;20745;-81
2021/01/27 09:42:37;;;;;;;0.00;0.00;;;;;;;5.05;100.00;99344.81;4993744;28;20040;-79
2021/01/27 09:45:45;;;;;;;0.10;0.00;;;;;;;5.11;100.00;99348.53;4993976;28;20040;-81
2021/01/27 09:48:49;;;;;;;0.10;0.10;;;;;;;5.14;100.00;99360.66;4994069;28;20270;-80
2021/01/27 09:51:54;;;;;;;0.10;0.00;;;;;;;5.11;100.00;99351.28;4994606;28;20174;-81
2021/01/27 09:55:12;;;;;;;0.10;0.00;;;;;;;5.19;100.00;99357.34;4992877;28;20044;-80
2021/01/27 09:58:16;;;;;;;0.10;0.10;;;;;;;5.29;100.00;99362.44;4995898;28;20695;-81
2021/01/27 10:01:23;;;;;;;0.10;0.00;;;;;;;5.34;100.00;99369.38;4995116;28;20044;-80
2021/01/27 10:04:35;;;;;;;0.10;0.00;;;;;;;5.35;100.00;99376.44;4995267;28;21039;-81
2021/01/27 10:07:39;;;;;;;0.10;0.00;;;;;;;5.35;100.00;99373.66;4996310;28;20056;-81
2021/01/27 10:10:44;;;;;;;0.00;0.00;;;;;;;5.39;100.00;99366.03;4995623;28;20044;-81
2021/01/27 10:13:47;;;;;;;0.10;0.10;;;;;;;5.48;100.00;99379.13;4995008;28;20044;-81
2021/01/27 10:16:59;;;;;;;0.10;0.10;;;;;;;5.55;100.00;99382.38;4994626;28;20037;-81
2021/01/27 10:20:08;;;;;;;0.00;0.00;;;;;;;5.65;100.00;99389.47;4994609;28;20028;-82
2021/01/27 10:23:33;;;;;;;0.10;0.00;;;;;;;5.69;100.00;99392.88;5006015;28;20052;-82
2021/01/27 10:26:41;;;;;;;0.10;0.10;;;;;;;5.76;100.00;99389.09;4998703;28;20040;-79
2021/01/27 10:29:45;;;;;;;0.10;0.10;;;;;;;5.83;100.00;99389.56;4997374;28;20048;-80
2021/01/27 10:32:49;;;;;;;0.10;0.00;;;;;;;5.88;100.00;99391.75;4998141;28;20036;-80
2021/01/27 10:35:52;;;;;;;0.10;0.10;;;;;;;5.92;100.00;99392.38;4996450;28;20049;-79
2021/01/27 10:39:14;;;;;;;0.10;0.00;;;;;;;5.99;100.00;99391.34;4998289;28;20044;-81
2021/01/27 10:42:22;;;;;;;0.10;0.00;;;;;;;6.06;100.00;99391.81;4997657;28;20041;-81
2021/01/27 10:45:31;;;;;;;0.10;0.00;;;;;;;6.13;100.00;99395.53;5008610;28;20040;-81
2021/01/27 10:48:35;;;;;;;0.10;0.00;;;;;;;6.19;100.00;99397.25;4998995;28;20044;-80
2021/01/27 10:51:42;;;;;;;0.10;0.10;;;;;;;6.28;100.00;99407.56;5009043;28;20056;-81
2021/01/27 10:54:46;;;;;;;0.10;0.00;;;;;;;6.29;100.00;99414.63;4996732;28;20041;-82
2021/01/27 10:57:49;;;;;;;0.10;0.00;;;;;;;6.34;100.00;99412.03;4997229;28;20077;-81
2021/01/27 11:00:53;;;;;;;0.00;0.00;;;;;;;6.40;100.00;99409.41;4997581;28;20029;-81
2021/01/27 11:03:57;;;;;;;0.10;0.10;;;;;;;6.44;100.00;99419.09;4997206;28;20238;-82
2021/01/27 11:07:00;;;;;;;0.10;0.00;;;;;;;6.46;100.00;99418.63;4996892;28;20209;-81
2021/01/27 11:10:04;;;;;;;0.10;0.00;;;;;;;6.55;100.00;99418.66;4993623;28;20053;-81
2021/01/27 11:13:08;;;;;;;0.10;0.00;;;;;;;6.59;100.00;99422.03;4997553;28;20726;-82
2021/01/27 11:16:12;;;;;;;0.10;0.00;;;;;;;6.65;100.00;99420.19;4998487;28;20037;-82
2021/01/27 11:19:16;;;;;;;0.10;0.00;;;;;;;6.68;100.00;99413.75;4999536;28;20046;-83
2021/01/27 11:22:19;;;;;;;0.10;0.10;;;;;;;6.68;100.00;99413.75;4999656;28;20068;-84
2021/01/27 11:25:25;;;;;;;0.00;0.00;;;;;;;6.68;100.00;99408.22;4997882;28;20611;-83
2021/01/27 11:28:29;;;;;;;0.00;0.00;;;;;;;6.78;100.00;99412.53;5043091;28;20477;-82
2021/01/27 11:31:33;;;;;;;0.00;0.00;;;;;;;6.89;100.00;99419.16;5034334;28;20056;-82
2021/01/27 11:34:37;;;;;;;0.00;0.00;;;;;;;6.87;100.00;99412.53;5044753;28;20509;-81
2021/01/27 11:37:40;;;;;;;0.00;0.00;;;;;;;6.90;100.00;99419.94;5045109;28;20056;-81
2021/01/27 11:40:44;;;;;;;0.00;0.00;;;;;;;6.91;100.00;99410.38;5034769;28;20056;-81
2021/01/27 11:43:48;;;;;;;0.10;0.10;;;;;;;6.88;100.00;99411.31;5034560;28;20048;-81
2021/01/27 11:46:52;;;;;;;0.10;0.00;;;;;;;6.90;100.00;99403.31;5034068;28;20504;-81
2021/01/27 11:49:56;;;;;;;0.10;0.00;;;;;;;6.91;100.00;99410.38;5044685;28;20045;-81
2021/01/27 11:52:59;;;;;;;0.00;0.00;;;;;;;6.89;100.00;99397.00;5033934;28;20409;-81
2021/01/27 11:56:03;;;;;;;0.10;0.00;;;;;;;6.89;100.00;99407.31;5032813;28;20048;-80
2021/01/27 11:59:06;;;;;;;0.00;0.00;;;;;;;6.93;100.00;99399.63;5044434;28;20060;-81
2021/01/27 12:02:10;;;;;;;0.10;0.00;;;;;;;6.94;100.00;99401.16;5033668;28;20044;-80
2021/01/27 12:05:16;;;;;;;0.10;0.00;;;;;;;6.93;100.00;99409.94;5033803;28;20048;-83
2021/01/27 12:08:21;;;;;;;0.10;0.10;;;;;;;6.95;100.00;99416.56;5033625;28;20045;-81
2021/01/27 12:11:25;;;;;;;0.10;0.00;;;;;;;6.96;100.00;99401.47;5033077;28;20053;-82
2021/01/27 12:14:28;;;;;;;0.10;0.00;;;;;;;6.95;100.00;99388.88;5032352;28;20068;-81
2021/01/27 12:17:33;;;;;;;0.10;0.00;;;;;;;6.98;100.00;99387.94;5033666;28;20072;-81
2021/01/27 12:20:40;;;;;;;0.10;0.10;;;;;;;7.01;100.00;99394.56;5033321;28;20045;-81
2021/01/27 12:23:44;;;;;;;0.10;0.00;;;;;;;7.04;100.00;99391.63;5033299;28;20048;-82
2021/01/27 12:26:47;;;;;;;0.10;0.00;;;;;;;7.12;100.00;99392.88;5033177;28;20056;-81
2021/01/27 12:29:50;;;;;;;0.10;0.10;;;;;;;7.04;100.00;99390.88;5033195;28;20056;-83
2021/01/27 12:32:54;;;;;;;0.10;0.10;;;;;;;7.08;100.00;99389.47;5032734;28;20421;-82
2021/01/27 12:35:57;;;;;;;0.10;0.00;;;;;;;7.13;100.00;99388.06;5032813;28;20064;-81
2021/01/27 12:39:01;;;;;;;0.10;0.10;;;;;;;7.26;100.00;99380.34;5032967;28;20052;-81
2021/01/27 12:42:06;;;;;;;0.00;0.00;;;;;;;7.46;100.00;99386.16;5031816;28;20060;-81
2021/01/27 12:45:13;;;;;;;0.10;0.10;;;;;;;7.59;100.00;99383.97;5031707;28;20049;-82
2021/01/27 12:48:17;;;;;;;0.10;0.00;;;;;;;7.67;100.00;99390.72;5032069;28;20056;-82
2021/01/27 12:51:21;;;;;;;0.10;0.00;;;;;;;7.63;100.00;99396.44;5031398;28;20048;-82
2021/01/27 12:54:24;;;;;;;0.10;0.10;;;;;;;7.67;100.00;99396.25;5031910;28;20052;-82
2021/01/27 12:57:29;;;;;;;0.10;0.00;;;;;;;7.71;100.00;99394.09;5032218;28;20044;-81
2021/01/27 13:00:33;;;;;;;0.10;0.10;;;;;;;7.83;100.00;99389.59;5031901;28;20049;-81
2021/01/27 13:03:36;;;;;;;0.10;0.10;;;;;;;7.89;100.00;99388.50;5032397;28;20040;-81
2021/01/27 13:06:40;;;;;;;0.10;0.00;;;;;;;7.84;100.00;99391.13;5035390;28;20235;-81
2021/01/27 13:09:43;;;;;;;0.10;0.10;;;;;;;7.69;100.00;99381.97;5035659;28;20044;-82
2021/01/27 13:12:50;;;;;;;0.10;0.00;;;;;;;7.62;100.00;99381.03;5033646;28;20397;-81
2021/01/27 13:15:55;;;;;;;0.10;0.00;;;;;;;7.59;100.00;99370.91;5034535;28;20417;-81
2021/01/27 13:18:59;;;;;;;0.10;0.00;;;;;;;7.60;100.00;99383.50;5034343;28;20056;-82
2021/01/27 13:22:02;;;;;;;0.10;0.00;;;;;;;7.63;100.00;99360.41;5033171;28;20045;-80
2021/01/27 13:25:09;;;;;;;0.10;0.00;;;;;;;7.65;100.00;99366.25;5033195;28;20045;-81
2021/01/27 13:28:13;;;;;;;0.10;0.00;;;;;;;7.73;100.00;99357.63;5032671;28;20052;-81
2021/01/27 13:31:16;;;;;;;0.10;0.00;;;;;;;7.72;100.00;99359.59;5032126;28;20504;-81
2021/01/27 13:34:21;;;;;;;0.00;0.00;;;;;;;7.74;100.00;99361.91;5031472;28;20061;-82
2021/01/27 13:37:24;;;;;;;0.05;0.00;;;;;;;7.73;100.00;99363.16;5042838;28;20056;-78
2021/01/27 13:40:28;;;;;;;0.00;0.00;;;;;;;7.74;100.00;99356.34;5043910;28;20500;-79
2021/01/27 13:43:32;;;;;;;0.03;0.00;;;;;;;7.77;100.00;99358.97;5031968;28;20057;-80
2021/01/27 13:46:35;;;;;;;0.10;0.00;;;;;;;7.78;100.00;99343.09;5031735;28;20052;-79
2021/01/27 13:49:39;;;;;;;0.10;0.00;;;;;;;7.78;100.00;99340.31;5031591;28;20049;-80
2021/01/27 13:52:44;;;;;;;0.10;0.00;;;;;;;7.71;100.00;99344.19;5031865;28;20068;-82
2021/01/27 13:55:48;;;;;;;0.00;0.00;;;;;;;7.68;100.00;99349.94;5031746;28;20480;-82
2021/01/27 13:58:51;;;;;;;0.10;0.00;;;;;;;7.64;100.00;99356.41;5033171;28;20397;-81
2021/01/27 14:01:55;;;;;;;0.00;0.00;;;;;;;7.64;100.00;99356.41;5035293;28;20044;-80
2021/01/27 14:04:58;;;;;;;0.00;0.00;;;;;;;7.63;100.00;99362.41;5035284;28;20563;-79
2021/01/27 14:08:02;;;;;;;0.00;0.00;;;;;;;7.58;100.00;99363.81;5035220;28;20052;-79
2021/01/27 14:11:06;;;;;;;0.05;0.00;;;;;;;7.55;100.00;99359.22;5035095;28;20052;-79
2021/01/27 14:14:09;;;;;;;0.10;0.00;;;;;;;7.50;100.00;99362.63;5035094;28;20056;-80
2021/01/27 14:17:15;;;;;;;0.10;0.10;;;;;;;7.48;100.00;99356.78;5046023;28;20044;-80
2021/01/27 14:20:21;;;;;;;0.10;0.00;;;;;;;7.48;100.00;99365.09;5045808;28;20048;-79
2021/01/27 14:23:25;;;;;;;0.10;0.00;;;;;;;7.45;100.00;99365.25;5035091;28;20052;-79
2021/01/27 14:26:28;;;;;;;0.10;0.10;;;;;;;7.43;100.00;99365.69;5035484;28;20401;-80
2021/01/27 14:29:31;;;;;;;0.10;0.00;;;;;;;7.45;100.00;99368.03;5046433;28;20045;-78
2021/01/27 14:32:35;;;;;;;0.10;0.10;;;;;;;7.42;100.00;99366.94;5023697;28;20056;-79
2021/01/27 14:35:39;;;;;;;0.10;0.00;;;;;;;7.37;100.00;99352.94;4995021;28;20711;-80
2021/01/27 14:38:44;;;;;;;0.10;0.00;;;;;;;7.38;100.00;99357.25;4997125;28;21145;-82
2021/01/27 14:41:47;;;;;;;0.10;0.05;;;;;;;7.38;100.00;99349.72;4994301;28;20366;-79
2021/01/27 14:44:51;;;;;;;0.10;0.00;;;;;;;7.45;100.00;99343.84;4993400;28;20032;-78
2021/01/27 14:47:54;;;;;;;0.10;0.10;;;;;;;7.50;100.00;99346.00;4994500;28;20439;-80
2021/01/27 14:50:58;;;;;;;0.05;0.00;;;;;;;7.49;100.00;99349.25;4993759;28;20254;-80
2021/01/27 14:54:01;;;;;;;0.10;0.10;;;;;;;7.45;100.00;99354.19;4993991;28;20044;-79